Time;durP1;ratioP1;P1;durP2;ratioP2;P2;SDS_P1;SDS_P2;PMS_P1;PMS_P2;Temp;Humidity;BMP_temperature;BMP_pressure;BME280_temperature;BME280_humidity;BME280_pressure;Samples;Min_cycle;Max_cycle;Signal;HPM_P1;HPM_P2
2021/11/09 00:00:28;;;;;;;13.93;5.63;;;;;;;;;;5004266;28;21034;-84
2021/11/09 00:02:55;;;;;;;14.70;5.90;;;;;;;;;;5011265;28;21005;-84
2021/11/09 00:05:25;;;;;;;21.90;6.80;;;;;;;;;;5025956;28;20479;-85
2021/11/09 00:07:54;;;;;;;18.50;5.67;;;;;;;;;;5008336;28;21027;-85
2021/11/09 00:10:22;;;;;;;17.47;6.03;;;;;;;;;;4998687;28;20462;-84
2021/11/09 00:12:50;;;;;;;17.63;6.60;;;;;;;;;;5001031;28;20484;-84
2021/11/09 00:15:18;;;;;;;25.40;6.37;;;;;;;;;;5015333;28;20526;-85
2021/11/09 00:17:47;;;;;;;17.63;6.30;;;;;;;;;;5002160;28;20453;-85
2021/11/09 00:20:17;;;;;;;15.80;6.03;;;;;;;;;;5006938;28;20961;-84
2021/11/09 00:22:44;;;;;;;17.47;6.03;;;;;;;;;;5012436;28;20484;-84
2021/11/09 00:25:12;;;;;;;21.73;6.40;;;;;;;;;;5025942;28;20848;-84
2021/11/09 00:27:39;;;;;;;21.43;7.13;;;;;;;;;;5024473;28;20549;-84
2021/11/09 00:30:07;;;;;;;17.10;6.10;;;;;;;;;;5006381;28;20449;-83
2021/11/09 00:32:34;;;;;;;19.03;7.83;;;;;;;;;;5024118;28;20472;-84
2021/11/09 00:35:03;;;;;;;14.93;6.03;;;;;;;;;;5030290;23;20428;-84
2021/11/09 00:37:30;;;;;;;17.13;6.30;;;;;;;;;;5038090;28;20520;-82
2021/11/09 00:39:57;;;;;;;20.83;5.83;;;;;;;;;;5037288;28;21025;-85
2021/11/09 00:42:24;;;;;;;17.00;5.53;;;;;;;;;;5037035;28;20548;-84
2021/11/09 00:44:51;;;;;;;13.73;6.00;;;;;;;;;;5036686;28;20824;-84
2021/11/09 00:47:18;;;;;;;14.30;6.33;;;;;;;;;;5037643;28;20463;-83
2021/11/09 00:49:46;;;;;;;18.70;5.53;;;;;;;;;;5049116;28;20825;-84
2021/11/09 00:52:14;;;;;;;15.23;6.00;;;;;;;;;;5043576;28;20458;-84
2021/11/09 00:54:42;;;;;;;17.03;5.80;;;;;;;;;;5036524;28;20959;-83
2021/11/09 00:57:09;;;;;;;15.23;6.00;;;;;;;;;;5042870;28;20482;-84
2021/11/09 00:59:36;;;;;;;18.60;5.63;;;;;;;;;;5037718;28;20452;-84
2021/11/09 01:02:03;;;;;;;18.10;7.73;;;;;;;;;;5037461;28;20462;-83
2021/11/09 01:04:31;;;;;;;15.17;6.00;;;;;;;;;;5037206;28;20466;-84
2021/11/09 01:06:59;;;;;;;10.70;5.40;;;;;;;;;;5036556;28;20478;-84
2021/11/09 01:09:27;;;;;;;13.67;5.73;;;;;;;;;;5039042;28;20495;-85
2021/11/09 01:11:55;;;;;;;19.77;6.20;;;;;;;;;;5037871;28;20455;-83
2021/11/09 01:14:23;;;;;;;20.70;5.17;;;;;;;;;;5038885;28;20458;-83
2021/11/09 01:16:50;;;;;;;16.00;5.50;;;;;;;;;;5040132;28;20937;-84
2021/11/09 01:19:18;;;;;;;18.23;5.40;;;;;;;;;;5038050;28;20454;-84
2021/11/09 01:21:45;;;;;;;19.50;6.60;;;;;;;;;;5036555;28;21010;-84
2021/11/09 01:24:14;;;;;;;16.67;6.13;;;;;;;;;;5037093;28;20991;-83
2021/11/09 01:26:43;;;;;;;18.40;5.77;;;;;;;;;;5036976;28;20536;-84
2021/11/09 01:29:12;;;;;;;14.50;5.23;;;;;;;;;;5038713;28;20468;-84
2021/11/09 01:31:39;;;;;;;23.00;6.03;;;;;;;;;;5038112;28;20452;-84
2021/11/09 01:34:06;;;;;;;19.77;6.23;;;;;;;;;;5038584;28;20460;-84
2021/11/09 01:36:34;;;;;;;26.00;8.00;;;;;;;;;;5037459;28;20487;-82
2021/11/09 01:39:01;;;;;;;17.13;6.43;;;;;;;;;;5038121;28;20977;-83
2021/11/09 01:41:29;;;;;;;13.80;5.83;;;;;;;;;;5036026;28;20545;-84
2021/11/09 01:43:58;;;;;;;23.47;5.40;;;;;;;;;;5036306;28;20464;-84
2021/11/09 01:46:25;;;;;;;13.70;6.60;;;;;;;;;;5036608;28;20483;-84
2021/11/09 01:48:52;;;;;;;17.93;6.10;;;;;;;;;;5037102;28;20551;-84
2021/11/09 01:51:21;;;;;;;15.00;6.10;;;;;;;;;;5035568;28;20548;-84
2021/11/09 01:53:49;;;;;;;18.80;5.77;;;;;;;;;;5036428;28;20456;-83
2021/11/09 01:56:18;;;;;;;20.07;6.90;;;;;;;;;;5035633;28;20525;-83
2021/11/09 01:58:45;;;;;;;13.03;5.83;;;;;;;;;;5035189;28;20867;-82
2021/11/09 02:01:17;;;;;;;19.73;5.50;;;;;;;;;;5032043;28;20495;-84
2021/11/09 02:03:45;;;;;;;9.20;4.83;;;;;;;;;;5031668;28;20452;-83
2021/11/09 02:06:13;;;;;;;18.47;5.77;;;;;;;;;;5035452;28;20482;-83
2021/11/09 02:08:41;;;;;;;19.17;7.07;;;;;;;;;;5032576;28;20456;-82
2021/11/09 02:11:09;;;;;;;19.63;6.57;;;;;;;;;;5035586;28;20451;-82
2021/11/09 02:13:36;;;;;;;16.73;6.40;;;;;;;;;;5034441;28;20447;-82
2021/11/09 02:16:03;;;;;;;15.03;6.37;;;;;;;;;;5033525;28;20478;-82
2021/11/09 02:18:32;;;;;;;17.13;7.10;;;;;;;;;;5020572;28;20457;-83
2021/11/09 02:21:02;;;;;;;16.50;6.13;;;;;;;;;;5038927;28;20567;-83
2021/11/09 02:23:31;;;;;;;17.90;7.00;;;;;;;;;;5039172;28;20452;-84
2021/11/09 02:25:58;;;;;;;16.57;7.00;;;;;;;;;;5038234;28;20572;-84
2021/11/09 02:28:25;;;;;;;14.63;5.97;;;;;;;;;;5028924;28;20468;-85
2021/11/09 02:30:53;;;;;;;13.87;5.40;;;;;;;;;;5042235;28;20490;-84
2021/11/09 02:33:20;;;;;;;19.67;6.10;;;;;;;;;;5040466;28;20462;-84
2021/11/09 02:35:47;;;;;;;14.37;6.60;;;;;;;;;;5042222;28;20487;-83
2021/11/09 02:38:16;;;;;;;18.10;5.80;;;;;;;;;;5040770;28;20456;-83
2021/11/09 02:40:43;;;;;;;11.83;6.27;;;;;;;;;;5040286;28;20488;-83
2021/11/09 02:43:12;;;;;;;18.63;5.30;;;;;;;;;;5040281;28;20546;-83
2021/11/09 02:45:42;;;;;;;18.43;6.40;;;;;;;;;;5039043;28;20475;-84
2021/11/09 02:48:13;;;;;;;16.33;5.50;;;;;;;;;;5038166;28;20459;-83
2021/11/09 02:50:44;;;;;;;17.40;6.93;;;;;;;;;;5037777;28;20460;-83
2021/11/09 02:53:13;;;;;;;18.87;5.87;;;;;;;;;;5037255;28;20457;-85
2021/11/09 02:55:45;;;;;;;13.50;6.80;;;;;;;;;;5037276;28;20473;-86
2021/11/09 02:58:21;;;;;;;14.83;6.40;;;;;;;;;;5035820;28;20488;-84
2021/11/09 03:01:01;;;;;;;18.13;6.33;;;;;;;;;;5036694;28;20476;-85
2021/11/09 03:03:33;;;;;;;12.93;5.30;;;;;;;;;;5036872;28;20456;-84
2021/11/09 03:06:12;;;;;;;17.13;7.20;;;;;;;;;;5038963;28;20487;-83
2021/11/09 03:08:43;;;;;;;12.30;5.37;;;;;;;;;;5039177;28;20452;-83
2021/11/09 03:11:11;;;;;;;21.97;6.50;;;;;;;;;;5039776;28;20439;-83
2021/11/09 03:13:39;;;;;;;16.57;6.60;;;;;;;;;;5039785;28;20514;-84
2021/11/09 03:16:09;;;;;;;15.63;6.43;;;;;;;;;;5040390;28;20576;-84
2021/11/09 03:18:42;;;;;;;13.00;5.97;;;;;;;;;;5039059;28;20530;-84
2021/11/09 03:40:32;;;;;;;13.60;6.30;;;;;;;;;;5034647;28;20473;-84
2021/11/09 03:45:46;;;;;;;11.40;5.23;;;;;;;;;;5034448;28;20539;-84
2021/11/09 03:48:16;;;;;;;20.70;7.30;;;;;;;;;;5035347;28;20460;-84
2021/11/09 03:50:44;;;;;;;15.00;6.13;;;;;;;;;;5034469;28;20504;-84
2021/11/09 03:53:15;;;;;;;12.37;5.30;;;;;;;;;;5034657;28;20502;-84
2021/11/09 03:56:00;;;;;;;19.67;7.57;;;;;;;;;;5036233;28;20494;-83
2021/11/09 03:58:34;;;;;;;19.13;7.23;;;;;;;;;;5037180;28;20462;-84
2021/11/09 04:01:03;;;;;;;16.30;6.63;;;;;;;;;;5035045;28;20492;-84
2021/11/09 04:03:41;;;;;;;14.80;6.40;;;;;;;;;;5034330;28;20461;-84
2021/11/09 04:06:21;;;;;;;15.73;5.90;;;;;;;;;;5034562;28;20559;-83
2021/11/09 04:08:54;;;;;;;17.53;6.77;;;;;;;;;;5033618;28;20524;-85
2021/11/09 04:11:26;;;;;;;15.00;6.80;;;;;;;;;;5032493;28;20490;-84
2021/11/09 04:14:00;;;;;;;15.60;6.33;;;;;;;;;;5032206;28;20456;-83
2021/11/09 04:53:20;;;;;;;14.20;6.80;;;;;;;;;;5030809;28;20446;-84
2021/11/09 05:01:32;;;;;;;13.27;6.63;;;;;;;;;;5030287;28;20554;-77
2021/11/09 05:09:33;;;;;;;20.37;8.50;;;;;;;;;;5031474;28;20801;-78
2021/11/09 05:12:00;;;;;;;18.13;8.90;;;;;;;;;;5030601;28;20977;-81
2021/11/09 05:14:27;;;;;;;20.70;8.30;;;;;;;;;;5039182;28;20448;-81
2021/11/09 05:16:55;;;;;;;21.40;8.30;;;;;;;;;;5039276;28;20467;-82
2021/11/09 05:19:23;;;;;;;18.43;7.83;;;;;;;;;;5039445;28;20459;-81
2021/11/09 05:21:50;;;;;;;16.83;8.60;;;;;;;;;;5037973;28;20477;-81
2021/11/09 05:24:17;;;;;;;27.63;9.00;;;;;;;;;;5039909;28;20460;-81
2021/11/09 05:26:45;;;;;;;21.03;7.77;;;;;;;;;;5039954;28;20475;-81
2021/11/09 05:29:13;;;;;;;25.47;9.30;;;;;;;;;;5039756;28;20456;-81
2021/11/09 05:31:41;;;;;;;19.63;7.13;;;;;;;;;;5037100;28;20450;-80
2021/11/09 05:34:08;;;;;;;19.13;8.00;;;;;;;;;;5039104;28;20451;-81
2021/11/09 05:36:38;;;;;;;22.43;9.90;;;;;;;;;;5039707;28;21008;-82
2021/11/09 05:39:12;;;;;;;17.93;7.43;;;;;;;;;;5039276;28;20549;-81
2021/11/09 05:41:41;;;;;;;19.00;7.23;;;;;;;;;;5038832;28;21050;-82
2021/11/09 05:44:08;;;;;;;18.13;7.90;;;;;;;;;;5038490;28;20505;-82
2021/11/09 05:46:35;;;;;;;18.60;7.63;;;;;;;;;;5039423;28;20527;-82
2021/11/09 05:49:02;;;;;;;17.50;7.90;;;;;;;;;;5039448;28;20849;-79
2021/11/09 05:51:30;;;;;;;23.93;9.03;;;;;;;;;;5037469;28;20459;-81
2021/11/09 05:54:00;;;;;;;20.07;9.00;;;;;;;;;;5039335;28;20522;-81
2021/11/09 05:56:27;;;;;;;16.93;7.40;;;;;;;;;;5039030;28;20510;-81
2021/11/09 05:58:54;;;;;;;18.43;9.33;;;;;;;;;;5040088;28;20461;-81
2021/11/09 06:01:21;;;;;;;22.67;9.57;;;;;;;;;;5048855;28;20470;-80
2021/11/09 06:03:48;;;;;;;20.97;8.57;;;;;;;;;;5052785;28;20508;-80
2021/11/09 06:06:16;;;;;;;19.23;8.37;;;;;;;;;;5048726;28;20460;-82
2021/11/09 06:08:44;;;;;;;28.43;9.10;;;;;;;;;;5047526;28;20539;-81
2021/11/09 06:11:13;;;;;;;18.23;7.87;;;;;;;;;;5044692;28;20456;-81
2021/11/09 06:13:40;;;;;;;26.83;9.50;;;;;;;;;;5055633;28;20507;-81
2021/11/09 06:16:07;;;;;;;19.87;7.70;;;;;;;;;;5046598;28;20480;-81
2021/11/09 06:18:34;;;;;;;17.47;7.60;;;;;;;;;;5049053;28;20453;-82
2021/11/09 06:21:01;;;;;;;18.53;8.63;;;;;;;;;;5050637;28;20995;-82
2021/11/09 06:23:28;;;;;;;25.07;8.60;;;;;;;;;;5053662;28;20451;-82
2021/11/09 06:25:55;;;;;;;19.40;8.20;;;;;;;;;;5053748;28;20545;-82
2021/11/09 06:28:26;;;;;;;22.23;7.67;;;;;;;;;;5054292;28;20455;-81
2021/11/09 06:30:53;;;;;;;18.97;7.93;;;;;;;;;;5046728;28;20462;-83
2021/11/09 06:33:21;;;;;;;21.90;8.50;;;;;;;;;;5051697;28;20504;-81
2021/11/09 06:35:48;;;;;;;18.70;8.30;;;;;;;;;;5053053;28;20536;-81
2021/11/09 06:38:15;;;;;;;18.80;8.10;;;;;;;;;;5052097;28;20475;-82
2021/11/09 06:40:42;;;;;;;23.07;10.23;;;;;;;;;;5050201;28;20444;-80
2021/11/09 06:43:12;;;;;;;18.90;7.80;;;;;;;;;;5052529;28;20496;-81
2021/11/09 06:45:41;;;;;;;16.60;7.80;;;;;;;;;;5050096;28;20464;-82
2021/11/09 06:48:08;;;;;;;19.63;8.00;;;;;;;;;;5047926;28;20445;-81
2021/11/09 06:50:35;;;;;;;18.23;8.43;;;;;;;;;;5049441;28;20470;-82
2021/11/09 06:53:03;;;;;;;23.97;8.80;;;;;;;;;;5049318;28;20443;-81
2021/11/09 06:55:30;;;;;;;25.70;9.40;;;;;;;;;;5050732;28;20464;-82
2021/11/09 06:57:58;;;;;;;16.47;8.40;;;;;;;;;;5051926;28;20478;-81
2021/11/09 07:00:26;;;;;;;20.13;8.37;;;;;;;;;;5049964;28;20521;-81
2021/11/09 07:02:54;;;;;;;23.27;9.87;;;;;;;;;;5043879;28;20558;-82
2021/11/09 07:05:22;;;;;;;25.70;9.00;;;;;;;;;;5039347;28;20545;-83
2021/11/09 07:07:49;;;;;;;24.97;8.80;;;;;;;;;;5047960;28;20509;-82
2021/11/09 07:10:17;;;;;;;22.53;8.90;;;;;;;;;;5046556;28;20515;-81
2021/11/09 07:12:44;;;;;;;18.13;8.57;;;;;;;;;;5048655;28;20441;-83
2021/11/09 07:15:11;;;;;;;20.93;8.67;;;;;;;;;;5039979;28;20473;-81
2021/11/09 07:17:40;;;;;;;21.43;9.77;;;;;;;;;;5041726;28;20971;-81
2021/11/09 07:20:10;;;;;;;14.10;7.40;;;;;;;;;;5035483;28;20456;-80
2021/11/09 07:22:37;;;;;;;18.03;8.53;;;;;;;;;;5031563;28;20604;-81
2021/11/09 07:25:04;;;;;;;22.00;9.17;;;;;;;;;;5033525;28;20504;-81
2021/11/09 07:27:32;;;;;;;18.70;7.50;;;;;;;;;;5038671;28;20459;-82
2021/11/09 07:30:01;;;;;;;22.20;9.13;;;;;;;;;;5044789;28;20558;-81
2021/11/09 07:32:29;;;;;;;16.50;8.60;;;;;;;;;;5041440;28;20518;-82
2021/11/09 07:34:56;;;;;;;19.20;9.10;;;;;;;;;;5036226;28;20456;-81
2021/11/09 07:37:25;;;;;;;26.30;8.87;;;;;;;;;;5039146;27;20507;-81
2021/11/09 07:39:52;;;;;;;23.50;8.80;;;;;;;;;;5045162;28;20520;-82
2021/11/09 07:42:19;;;;;;;16.30;8.30;;;;;;;;;;5033273;28;20484;-81
2021/11/09 07:44:47;;;;;;;16.97;8.23;;;;;;;;;;5046982;28;20948;-81
2021/11/09 07:47:15;;;;;;;19.83;9.40;;;;;;;;;;5026692;28;20966;-81
2021/11/09 07:49:42;;;;;;;23.37;8.70;;;;;;;;;;5037404;27;20468;-80
2021/11/09 07:52:10;;;;;;;20.47;9.50;;;;;;;;;;5032365;27;20834;-81
2021/11/09 07:54:43;;;;;;;20.03;8.60;;;;;;;;;;5037010;27;20461;-82
2021/11/09 07:57:14;;;;;;;32.23;10.10;;;;;;;;;;5031480;28;20500;-81
2021/11/09 07:59:48;;;;;;;26.20;11.10;;;;;;;;;;5038419;28;20483;-81
2021/11/09 08:02:25;;;;;;;19.63;8.93;;;;;;;;;;5034671;28;20922;-82
2021/11/09 08:04:55;;;;;;;16.63;8.80;;;;;;;;;;5039538;28;20448;-80
2021/11/09 08:07:24;;;;;;;17.90;8.20;;;;;;;;;;5032066;28;20815;-81
2021/11/09 08:09:53;;;;;;;29.60;9.43;;;;;;;;;;5042512;28;20452;-81
2021/11/09 08:12:20;;;;;;;17.93;9.10;;;;;;;;;;5059424;28;20455;-81
2021/11/09 08:14:47;;;;;;;19.50;7.53;;;;;;;;;;5061890;28;20452;-83
2021/11/09 08:17:15;;;;;;;17.70;8.80;;;;;;;;;;5061587;28;20455;-82
2021/11/09 08:19:43;;;;;;;16.90;7.93;;;;;;;;;;5051218;28;20475;-81
2021/11/09 08:22:10;;;;;;;20.30;7.40;;;;;;;;;;5045366;28;20488;-83
2021/11/09 08:24:37;;;;;;;20.43;8.20;;;;;;;;;;5061897;28;20530;-82
2021/11/09 08:27:10;;;;;;;18.97;7.60;;;;;;;;;;5067147;23;21097;-81
2021/11/09 08:29:37;;;;;;;17.67;7.40;;;;;;;;;;5039608;28;20456;-81
2021/11/09 08:32:09;;;;;;;23.33;7.33;;;;;;;;;;5039726;28;20514;-81
2021/11/09 08:34:36;;;;;;;14.13;7.10;;;;;;;;;;5029771;28;20450;-81
2021/11/09 08:37:04;;;;;;;29.57;8.13;;;;;;;;;;5040417;28;20479;-81
2021/11/09 08:39:35;;;;;;;15.60;6.40;;;;;;;;;;5038764;28;20968;-80
2021/11/09 08:42:12;;;;;;;13.37;6.33;;;;;;;;;;5028802;28;20488;-81
2021/11/09 08:44:45;;;;;;;14.93;6.67;;;;;;;;;;5041219;28;20463;-81
2021/11/09 08:47:16;;;;;;;17.03;7.07;;;;;;;;;;5025564;28;20676;-81
2021/11/09 08:49:44;;;;;;;16.80;7.33;;;;;;;;;;5021271;28;20465;-82
2021/11/09 08:52:13;;;;;;;15.73;6.80;;;;;;;;;;5038601;28;20454;-80
2021/11/09 08:54:50;;;;;;;16.03;5.90;;;;;;;;;;5033039;28;20454;-80
2021/11/09 08:57:34;;;;;;;12.27;5.43;;;;;;;;;;5034168;28;20497;-81
2021/11/09 09:05:34;;;;;;;13.20;5.13;;;;;;;;;;5033888;28;20464;-81
2021/11/09 09:08:01;;;;;;;13.90;6.00;;;;;;;;;;5032255;28;20540;-81
2021/11/09 09:10:28;;;;;;;16.63;5.90;;;;;;;;;;5022531;28;20687;-82
2021/11/09 09:12:55;;;;;;;12.53;5.40;;;;;;;;;;5014565;28;20549;-81
2021/11/09 09:15:24;;;;;;;15.20;5.10;;;;;;;;;;5011817;28;20469;-81
2021/11/09 09:17:51;;;;;;;13.10;4.73;;;;;;;;;;5014837;28;20479;-81
2021/11/09 09:20:22;;;;;;;16.00;5.80;;;;;;;;;;5013588;28;20475;-80
2021/11/09 09:23:01;;;;;;;10.60;4.70;;;;;;;;;;5019452;28;20497;-81
2021/11/09 09:25:38;;;;;;;11.40;4.13;;;;;;;;;;5016886;28;20449;-81
2021/11/09 09:28:39;;;;;;;11.00;4.23;;;;;;;;;;5010013;28;20492;-81
2021/11/09 09:53:08;;;;;;;13.53;3.83;;;;;;;;;;5015777;28;20536;-81
2021/11/09 09:55:41;;;;;;;11.07;3.80;;;;;;;;;;5019202;28;20538;-81
2021/11/09 09:58:10;;;;;;;10.33;3.40;;;;;;;;;;5008591;28;20481;-82
2021/11/09 10:00:37;;;;;;;9.60;3.20;;;;;;;;;;5015910;28;20452;-80
2021/11/09 10:03:06;;;;;;;10.70;3.30;;;;;;;;;;5014069;28;20502;-81
2021/11/09 10:05:34;;;;;;;10.60;3.40;;;;;;;;;;5013695;28;20893;-81
2021/11/09 10:08:09;;;;;;;10.03;2.73;;;;;;;;;;5011066;28;20544;-81
2021/11/09 10:10:36;;;;;;;12.13;3.10;;;;;;;;;;5013513;28;20458;-81
2021/11/09 10:13:04;;;;;;;10.57;2.73;;;;;;;;;;5009424;28;20464;-81
2021/11/09 10:15:33;;;;;;;11.77;3.77;;;;;;;;;;5007886;28;20459;-81
2021/11/09 10:18:02;;;;;;;7.23;2.40;;;;;;;;;;5014928;28;20467;-81
2021/11/09 10:20:32;;;;;;;10.90;3.10;;;;;;;;;;5015803;28;20448;-81
2021/11/09 10:23:01;;;;;;;10.10;2.50;;;;;;;;;;5014409;28;20882;-80
2021/11/09 10:25:29;;;;;;;9.43;2.63;;;;;;;;;;5014127;28;20466;-80
2021/11/09 10:28:00;;;;;;;12.17;2.70;;;;;;;;;;5015109;28;20480;-79
2021/11/09 10:30:29;;;;;;;12.13;2.70;;;;;;;;;;5014364;28;20457;-79
2021/11/09 10:32:56;;;;;;;11.27;3.00;;;;;;;;;;5010025;28;20455;-79
2021/11/09 10:35:25;;;;;;;9.07;2.77;;;;;;;;;;5009540;28;20451;-79
2021/11/09 10:37:54;;;;;;;10.07;3.00;;;;;;;;;;5008162;28;20519;-79
2021/11/09 10:40:22;;;;;;;13.10;2.90;;;;;;;;;;5008948;28;20496;-79
2021/11/09 10:42:51;;;;;;;11.90;2.67;;;;;;;;;;5016917;28;20488;-79
2021/11/09 10:45:19;;;;;;;8.03;2.43;;;;;;;;;;5020078;28;20452;-78
2021/11/09 10:47:48;;;;;;;7.50;2.33;;;;;;;;;;5022879;28;20465;-79
2021/11/09 10:50:20;;;;;;;10.07;2.60;;;;;;;;;;5024782;28;20493;-78
2021/11/09 10:52:49;;;;;;;9.20;2.27;;;;;;;;;;5028259;28;20513;-79
2021/11/09 10:55:21;;;;;;;7.67;2.30;;;;;;;;;;5023940;28;20821;-79
2021/11/09 10:57:55;;;;;;;11.97;2.70;;;;;;;;;;5025599;28;20457;-79
2021/11/09 11:03:16;;;;;;;10.90;2.30;;;;;;;;;;5024124;28;20566;-79
2021/11/09 11:03:55;;;;;;;9.27;2.27;;;;;;;;;;5023030;28;20491;-82
2021/11/09 11:06:23;;;;;;;9.70;2.00;;;;;;;;;;5015870;28;20501;-79
2021/11/09 11:08:51;;;;;;;9.07;1.80;;;;;;;;;;5015302;28;20472;-79
2021/11/09 11:11:21;;;;;;;8.17;1.50;;;;;;;;;;4998629;28;20463;-80
2021/11/09 11:13:50;;;;;;;9.50;2.10;;;21.20;92.30;;;;;;5017903;28;20472;-80
2021/11/09 11:16:18;;;;;;;9.13;2.37;;;21.30;90.60;;;;;;5031482;28;20458;-80
2021/11/09 11:18:47;;;;;;;7.93;2.30;;;22.80;81.70;;;;;;5022438;28;20476;-80
2021/11/09 11:21:16;;;;;;;8.13;2.10;;;24.50;73.90;;;;;;5021768;28;20477;-80
2021/11/09 11:23:44;;;;;;;8.57;2.10;;;25.00;66.40;;;;;;5020336;28;20492;-80
2021/11/09 11:26:11;;;;;;;11.67;3.00;;;24.10;61.70;;;;;;5027059;28;20460;-80
2021/11/09 11:28:41;;;;;;;8.40;2.30;;;24.80;60.70;;;;;;5020824;28;21052;-80
2021/11/09 11:31:10;;;;;;;9.30;2.30;;;25.30;57.90;;;;;;5013011;28;20541;-80
2021/11/09 11:33:37;;;;;;;10.97;2.43;;;25.10;57.40;;;;;;5010477;28;20482;-80
2021/11/09 11:36:05;;;;;;;11.33;2.80;;;25.40;58.60;;;;;;5007684;28;20492;-80
2021/11/09 11:38:33;;;;;;;9.13;2.50;;;25.60;57.70;;;;;;5004867;28;20480;-81
2021/11/09 11:41:02;;;;;;;9.93;2.23;;;27.60;56.70;;;;;;5010096;28;20452;-82
2021/11/09 11:43:56;;;;;;;7.60;2.00;;;28.20;54.30;;;;;;5008527;28;20499;-83
2021/11/09 11:46:45;;;;;;;7.70;1.90;;;29.20;53.50;;;;;;5011670;28;20831;-80
2021/11/09 11:49:16;;;;;;;7.90;2.00;;;29.00;51.90;;;;;;5011644;28;20450;-81
2021/11/09 11:52:12;;;;;;;7.30;2.03;;;29.50;50.50;;;;;;5010805;28;20446;-81
2021/11/09 11:54:43;;;;;;;10.60;2.20;;;29.60;49.20;;;;;;5012028;28;20838;-82
2021/11/09 11:57:11;;;;;;;10.10;3.30;;;29.40;50.80;;;;;;5009914;28;20473;-81
2021/11/09 11:59:42;;;;;;;7.20;1.60;;;29.20;48.00;;;;;;5013578;28;20441;-81
2021/11/09 12:02:11;;;;;;;9.47;2.10;;;29.10;48.00;;;;;;5011266;28;20507;-80
2021/11/09 12:04:55;;;;;;;8.50;2.50;;;28.40;47.10;;;;;;5012348;28;20478;-80
2021/11/09 12:07:42;;;;;;;11.63;2.33;;;26.20;47.20;;;;;;5008271;28;20508;-80
2021/11/09 12:10:11;;;;;;;11.07;2.67;;;24.90;49.20;;;;;;5009704;28;20449;-81
2021/11/09 12:12:38;;;;;;;8.83;2.17;;;23.70;50.70;;;;;;5015197;28;20520;-80
2021/11/09 12:15:09;;;;;;;8.20;2.03;;;24.20;52.10;;;;;;5009806;28;20449;-80
2021/11/09 12:17:38;;;;;;;8.87;2.03;;;23.20;51.20;;;;;;5011614;28;20481;-80
2021/11/09 12:20:07;;;;;;;8.77;1.83;;;22.50;54.00;;;;;;5007899;28;20453;-84
2021/11/09 12:22:49;;;;;;;8.10;1.70;;;21.70;53.50;;;;;;5011798;28;20462;-80
2021/11/09 12:25:35;;;;;;;7.70;2.20;;;20.40;54.30;;;;;;5006047;28;20454;-82
2021/11/09 12:28:07;;;;;;;10.03;1.97;;;19.80;55.90;;;;;;5012823;28;20950;-85
2021/11/09 12:30:48;;;;;;;8.90;2.30;;;19.00;57.90;;;;;;5010782;28;20480;-81
2021/11/09 12:33:16;;;;;;;11.93;2.73;;;19.00;60.40;;;;;;5009039;28;20478;-80
2021/11/09 12:35:45;;;;;;;7.00;1.77;;;18.80;63.10;;;;;;5016460;28;21253;-80
2021/11/09 12:38:16;;;;;;;8.03;2.20;;;18.70;60.00;;;;;;5020861;28;20507;-80
2021/11/09 12:41:09;;;;;;;8.17;1.67;;;18.30;61.70;;;;;;5023691;28;20510;-84
2021/11/09 12:43:48;;;;;;;7.23;2.10;;;19.00;58.90;;;;;;5012254;28;20478;-82
2021/11/09 12:46:23;;;;;;;9.03;1.60;;;18.80;59.80;;;;;;5006462;28;20457;-83
2021/11/09 12:49:00;;;;;;;6.67;1.60;;;18.50;59.20;;;;;;5016673;28;21024;-85
2021/11/09 12:51:29;;;;;;;8.60;2.07;;;18.70;59.50;;;;;;5016824;28;20453;-84
2021/11/09 12:54:00;;;;;;;8.10;1.83;;;19.10;59.80;;;;;;5016998;28;20472;-84
2021/11/09 12:56:33;;;;;;;8.50;1.87;;;19.20;60.90;;;;;;5020518;28;20459;-84
2021/11/09 12:59:03;;;;;;;10.67;1.87;;;18.00;59.50;;;;;;5017621;28;20468;-84
2021/11/09 13:01:41;;;;;;;11.43;1.80;;;18.20;62.90;;;;;;5017098;28;20447;-84
2021/11/09 13:04:17;;;;;;;8.10;2.13;;;18.00;63.40;;;;;;4991138;28;20503;-85
2021/11/09 13:06:52;;;;;;;9.03;1.80;;;17.10;62.80;;;;;;5015946;28;20512;-83
2021/11/09 13:09:22;;;;;;;10.23;1.70;;;16.80;63.80;;;;;;5014908;28;20624;-82
2021/11/09 13:11:53;;;;;;;12.63;1.90;;;16.10;65.60;;;;;;5000013;28;20470;-86
2021/11/09 13:14:21;;;;;;;13.93;2.33;;;16.10;67.20;;;;;;5004541;28;20466;-84
2021/11/09 13:16:52;;;;;;;8.33;1.90;;;15.60;67.90;;;;;;5008494;28;20469;-84
2021/11/09 13:19:26;;;;;;;7.40;1.50;;;15.40;71.00;;;;;;5008184;28;20613;-83
2021/11/09 13:22:08;;;;;;;7.60;1.50;;;15.30;75.00;;;;;;5005517;28;20612;-84
2021/11/09 13:24:38;;;;;;;7.50;1.80;;;15.30;73.30;;;;;;5011312;28;20864;-81
2021/11/09 13:27:08;;;;;;;10.20;2.57;;;15.20;80.90;;;;;;5013075;28;20482;-82
2021/11/09 13:29:47;;;;;;;8.50;1.87;;;15.20;82.00;;;;;;5012646;28;20457;-82
2021/11/09 13:32:16;;;;;;;8.40;2.00;;;15.10;84.20;;;;;;5006790;28;20461;-82
2021/11/09 13:34:44;;;;;;;11.50;2.70;;;14.90;90.00;;;;;;5011115;28;20461;-83
2021/11/09 13:37:14;;;;;;;11.50;2.37;;;14.70;84.70;;;;;;5005449;28;20477;-84
2021/11/09 13:39:41;;;;;;;9.70;2.00;;;14.50;92.90;;;;;;5012549;28;20460;-83
2021/11/09 13:42:08;;;;;;;10.50;2.00;;;14.40;95.50;;;;;;5010933;28;20854;-84
2021/11/09 13:44:36;;;;;;;9.33;2.70;;;14.30;99.90;;;;;;5022612;28;20873;-83
2021/11/09 13:47:03;;;;;;;9.23;2.03;;;13.80;99.90;;;;;;5036170;28;20477;-82
2021/11/09 13:49:31;;;;;;;12.00;2.30;;;13.70;99.90;;;;;;5003604;28;20471;-86
2021/11/09 13:52:01;;;;;;;9.50;2.10;;;13.70;99.90;;;;;;5003532;28;21028;-83
2021/11/09 13:54:41;;;;;;;7.50;1.77;;;13.70;99.90;;;;;;5002488;28;20458;-84
2021/11/09 13:57:11;;;;;;;10.23;2.03;;;13.80;99.90;;;;;;5028259;28;20504;-84
2021/11/09 13:59:39;;;;;;;8.93;2.20;;;13.70;99.90;;;;;;5009322;28;20462;-85
2021/11/09 14:02:21;;;;;;;8.40;2.27;;;13.50;99.90;;;;;;5007547;28;20463;-86
2021/11/09 14:07:50;;;;;;;8.90;2.30;;;13.20;99.90;;;;;;5016262;28;20466;-83
2021/11/09 14:10:38;;;;;;;9.13;1.93;;;13.00;99.90;;;;;;5019002;28;20473;-82
2021/11/09 14:16:16;;;;;;;9.60;2.20;;;12.70;99.90;;;;;;5014385;28;21013;-83
2021/11/09 14:18:48;;;;;;;10.30;2.00;;;12.50;99.90;;;;;;5001797;28;22321;-83
2021/11/09 14:21:17;;;;;;;8.30;2.43;;;12.50;99.90;;;;;;5008866;28;20459;-83
2021/11/09 14:23:44;;;;;;;9.93;1.87;;;12.60;99.90;;;;;;5012932;28;20497;-85
2021/11/09 14:26:20;;;;;;;8.37;2.83;;;12.50;99.90;;;;;;5008149;28;20455;-82
2021/11/09 14:28:47;;;;;;;8.63;2.13;;;12.40;99.90;;;;;;5006869;28;20487;-83
2021/11/09 14:31:17;;;;;;;8.03;2.03;;;12.30;99.90;;;;;;5005944;28;20863;-81
2021/11/09 14:33:46;;;;;;;8.57;1.90;;;12.30;99.90;;;;;;5010290;28;20461;-83
2021/11/09 14:36:26;;;;;;;11.87;2.40;;;12.20;99.90;;;;;;5011657;28;20457;-83
2021/11/09 14:39:15;;;;;;;9.17;2.23;;;12.10;99.90;;;;;;5009458;28;21079;-82
2021/11/09 14:42:11;;;;;;;10.00;2.43;;;11.90;99.90;;;;;;5006042;28;20480;-82
2021/11/09 14:45:03;;;;;;;7.43;1.93;;;11.90;99.90;;;;;;5004557;28;20488;-82
2021/11/09 14:47:40;;;;;;;12.93;2.73;;;11.90;99.90;;;;;;5006506;28;20484;-81
2021/11/09 14:50:13;;;;;;;11.37;3.07;;;11.80;99.90;;;;;;5010899;28;21005;-81
2021/11/09 14:52:43;;;;;;;8.03;2.00;;;11.70;99.90;;;;;;5014070;28;20458;-83
2021/11/09 14:55:29;;;;;;;9.40;2.20;;;11.70;99.90;;;;;;5017888;28;20450;-82
2021/11/09 14:57:56;;;;;;;9.30;2.37;;;11.60;99.90;;;;;;5023367;28;20475;-82
2021/11/09 15:00:24;;;;;;;7.73;2.13;;;11.50;99.90;;;;;;5019005;28;20465;-82
2021/11/09 15:03:02;;;;;;;7.10;1.50;;;11.50;99.90;;;;;;5013794;28;20457;-81
2021/11/09 15:05:33;;;;;;;7.00;2.10;;;11.40;99.90;;;;;;5011076;28;20492;-81
2021/11/09 15:27:31;;;;;;;9.00;2.37;;;10.60;99.90;;;;;;5003975;28;20549;-79
2021/11/09 15:30:00;;;;;;;8.97;2.50;;;10.50;99.90;;;;;;5011580;28;20836;-80
2021/11/09 15:32:30;;;;;;;10.73;3.47;;;10.30;99.90;;;;;;5015043;28;20456;-82
2021/11/09 15:35:08;;;;;;;9.17;2.97;;;10.30;99.90;;;;;;5009961;28;20469;-83
2021/11/09 15:37:37;;;;;;;30.50;6.90;;;10.30;99.90;;;;;;5009061;28;20492;-84
2021/11/09 15:40:10;;;;;;;9.60;4.37;;;10.20;99.90;;;;;;5014362;28;20462;-84
2021/11/09 15:42:37;;;;;;;13.23;5.47;;;10.20;99.90;;;;;;5014662;28;20460;-84
2021/11/09 15:45:05;;;;;;;8.90;4.30;;;10.00;99.90;;;;;;5012672;28;20488;-84
2021/11/09 15:47:32;;;;;;;10.50;3.53;;;9.90;99.90;;;;;;5010795;28;20468;-87
2021/11/09 15:49:58;;;;;;;11.40;3.83;;;9.90;99.90;;;;;;5009517;28;20459;-80
2021/11/09 15:52:25;;;;;;;11.23;3.77;;;9.80;99.90;;;;;;5005200;28;20492;-83
2021/11/09 15:54:53;;;;;;;9.20;3.37;;;9.80;99.90;;;;;;5011566;28;20443;-85
2021/11/09 15:57:22;;;;;;;9.33;3.53;;;9.70;99.90;;;;;;5002067;28;20565;-82
2021/11/09 15:59:50;;;;;;;10.50;3.80;;;9.60;99.90;;;;;;5005232;28;20498;-82
2021/11/09 16:02:17;;;;;;;9.80;3.63;;;9.60;99.90;;;;;;5005166;28;20470;-83
2021/11/09 16:04:45;;;;;;;9.87;3.20;;;9.50;99.90;;;;;;5008298;28;21114;-82
2021/11/09 16:07:12;;;;;;;8.80;3.00;;;9.40;99.90;;;;;;5010021;28;20515;-82
2021/11/09 16:09:41;;;;;;;7.37;2.70;;;9.30;99.90;;;;;;5009358;28;20466;-83
2021/11/09 16:12:09;;;;;;;10.10;2.90;;;9.20;99.90;;;;;;5008049;28;20459;-82
2021/11/09 16:14:37;;;;;;;14.17;3.97;;;9.20;99.90;;;;;;5009284;28;20805;-83